Time;durP1;ratioP1;P1;durP2;ratioP2;P2;SDS_P1;SDS_P2;PMS_P1;PMS_P2;Temp;Humidity;BMP_temperature;BMP_pressure;BME280_temperature;BME280_humidity;BME280_pressure;Samples;Min_cycle;Max_cycle;Signal;HPM_P1;HPM_P2
2023/07/07 00:03:20;;;;;;;5.60;3.30;;;24.60;54.70;;;;;;222428;1257;24300;-50
2023/07/07 00:08:24;;;;;;;3.70;3.00;;;24.60;54.90;;;;;;222470;1260;25176;-52
2023/07/07 00:13:28;;;;;;;4.90;3.20;;;24.70;55.40;;;;;;222428;1255;24277;-51
2023/07/07 00:18:32;;;;;;;4.80;2.70;;;24.70;55.00;;;;;;222899;1256;22628;-52
2023/07/07 00:23:37;;;;;;;3.40;3.10;;;24.70;55.00;;;;;;222517;1253;22512;-55
2023/07/07 00:28:41;;;;;;;3.40;3.10;;;24.60;55.20;;;;;;222476;1260;22670;-52
2023/07/07 00:33:46;;;;;;;2.90;2.70;;;24.70;55.10;;;;;;222215;1260;24194;-53
2023/07/07 00:38:52;;;;;;;4.10;2.80;;;24.70;55.30;;;;;;222556;1260;24183;-53
2023/07/07 00:44:08;;;;;;;3.20;2.90;;;24.70;55.40;;;;;;222431;1264;26125;-55
2023/07/07 00:49:15;;;;;;;3.10;2.90;;;24.70;55.30;;;;;;222444;1260;22515;-53
2023/07/07 00:54:26;;;;;;;3.40;3.10;;;24.70;55.90;;;;;;222755;1260;22519;-56
2023/07/07 00:59:34;;;;;;;3.30;2.90;;;24.70;55.30;;;;;;222386;1260;22648;-56
2023/07/07 01:04:42;;;;;;;4.40;2.90;;;24.80;55.90;;;;;;222466;1250;24193;-56
2023/07/07 01:09:49;;;;;;;2.90;2.70;;;24.70;56.00;;;;;;222515;1260;22978;-55
2023/07/07 01:14:53;;;;;;;3.10;2.80;;;24.70;56.30;;;;;;222380;1260;26475;-55
2023/07/07 01:20:30;;;;;;;2.80;2.60;;;24.70;56.00;;;;;;222267;1245;24224;-56
2023/07/07 01:26:06;;;;;;;3.90;3.00;;;24.70;56.20;;;;;;222400;1254;22626;-56
2023/07/07 01:31:17;;;;;;;2.90;2.60;;;24.70;55.80;;;;;;222480;1250;24173;-55
2023/07/07 01:36:22;;;;;;;3.30;3.00;;;24.80;56.20;;;;;;222450;1260;23133;-56
2023/07/07 01:41:36;;;;;;;2.80;2.60;;;24.80;56.10;;;;;;222772;1263;22630;-56
2023/07/07 01:46:54;;;;;;;3.00;2.50;;;24.70;56.10;;;;;;222509;1264;25290;-56
2023/07/07 01:52:13;;;;;;;2.40;2.20;;;24.70;56.20;;;;;;222657;1260;25483;-57
2023/07/07 01:57:19;;;;;;;2.70;2.50;;;24.70;56.30;;;;;;222844;1260;25198;-53
2023/07/07 02:02:25;;;;;;;3.20;2.80;;;24.70;56.80;;;;;;222524;1260;25368;-56
2023/07/07 02:07:30;;;;;;;2.70;2.50;;;24.70;56.60;;;;;;222560;1266;23010;-57
2023/07/07 02:12:34;;;;;;;2.30;2.10;;;24.70;56.80;;;;;;222414;1260;26478;-56
2023/07/07 02:17:38;;;;;;;4.20;2.40;;;24.70;56.70;;;;;;222229;1260;501682;-55
2023/07/07 02:22:43;;;;;;;2.80;2.60;;;24.70;56.80;;;;;;222490;1257;22508;-55
2023/07/07 02:27:47;;;;;;;2.50;2.20;;;24.70;56.70;;;;;;222485;1260;24336;-53
2023/07/07 02:32:51;;;;;;;5.10;2.70;;;24.70;56.70;;;;;;222416;1260;22778;-56
2023/07/07 02:37:56;;;;;;;3.90;2.70;;;24.70;56.80;;;;;;222489;1260;22725;-56
2023/07/07 02:43:04;;;;;;;2.80;2.50;;;24.70;56.80;;;;;;222663;1260;25250;-55
2023/07/07 02:48:09;;;;;;;2.30;2.10;;;24.70;56.70;;;;;;222290;1255;22505;-57
2023/07/07 02:53:14;;;;;;;2.60;2.30;;;24.80;56.80;;;;;;222664;1260;22521;-58
2023/07/07 02:58:18;;;;;;;2.60;2.40;;;24.80;56.70;;;;;;222337;1260;22505;-56
2023/07/07 03:03:26;;;;;;;3.50;3.20;;;24.80;56.60;;;;;;222530;1256;25609;-55
2023/07/07 03:08:31;;;;;;;3.60;3.30;;;24.80;56.60;;;;;;222685;1254;25204;-55
2023/07/07 03:13:36;;;;;;;4.00;3.70;;;24.80;56.80;;;;;;222503;1260;24223;-55
2023/07/07 03:18:41;;;;;;;4.00;3.50;;;24.80;56.70;;;;;;222504;1261;25502;-54
2023/07/07 03:23:46;;;;;;;4.70;4.20;;;24.80;56.60;;;;;;222559;1260;25281;-55
2023/07/07 03:28:51;;;;;;;4.80;4.40;;;24.70;56.90;;;;;;222598;1253;22638;-54
2023/07/07 03:33:59;;;;;;;4.50;4.10;;;24.80;56.70;;;;;;222418;1260;22581;-58
2023/07/07 03:39:06;;;;;;;5.40;4.80;;;24.70;57.10;;;;;;222532;1263;22533;-55
2023/07/07 03:44:11;;;;;;;4.50;3.90;;;24.80;56.60;;;;;;222566;1254;22500;-55
2023/07/07 03:49:15;;;;;;;4.70;4.10;;;24.80;57.00;;;;;;222533;1260;22521;-58
2023/07/07 03:54:19;;;;;;;5.10;4.00;;;24.80;56.60;;;;;;222728;1247;22653;-57
2023/07/07 03:59:26;;;;;;;4.60;4.00;;;24.80;56.70;;;;;;222598;1255;22525;-57
2023/07/07 04:04:31;;;;;;;3.90;3.50;;;24.80;56.70;;;;;;222442;1260;22556;-55
2023/07/07 04:09:36;;;;;;;5.00;4.50;;;24.80;56.70;;;;;;222435;1265;22647;-56
2023/07/07 04:14:40;;;;;;;4.10;3.80;;;24.70;56.80;;;;;;222295;1263;24214;-54
2023/07/07 04:19:44;;;;;;;6.10;3.50;;;24.70;56.90;;;;;;222362;1266;22508;-55
2023/07/07 04:25:10;;;;;;;4.30;4.00;;;24.70;57.50;;;;;;222397;1253;22776;-58
2023/07/07 04:30:14;;;;;;;3.90;3.60;;;24.70;57.00;;;;;;222363;1263;25376;-55
2023/07/07 04:35:18;;;;;;;4.10;3.40;;;24.80;56.70;;;;;;222203;1269;24220;-56
2023/07/07 04:40:23;;;;;;;3.80;3.50;;;24.80;57.00;;;;;;229893;1263;22511;-57
2023/07/07 04:45:27;;;;;;;3.60;3.30;;;25.00;56.50;;;;;;222250;1263;24066;-57
2023/07/07 04:50:34;;;;;;;6.00;3.60;;;24.90;56.60;;;;;;222247;1266;22508;-57
2023/07/07 04:55:45;;;;;;;4.10;3.50;;;24.90;56.80;;;;;;221926;1268;22668;-55
2023/07/07 05:00:49;;;;;;;5.60;3.90;;;24.80;57.00;;;;;;222418;1264;22585;-55
2023/07/07 05:05:56;;;;;;;3.60;3.30;;;24.80;57.10;;;;;;222337;1254;24187;-56
2023/07/07 05:11:01;;;;;;;4.10;3.70;;;24.80;57.30;;;;;;222502;1266;22653;-56
2023/07/07 05:16:08;;;;;;;3.20;3.00;;;24.80;57.60;;;;;;222586;1260;24187;-57
2023/07/07 05:21:17;;;;;;;9.90;4.10;;;24.70;57.40;;;;;;222709;1247;25380;-50
2023/07/07 05:26:22;;;;;;;5.50;3.90;;;24.70;57.20;;;;;;222433;1260;24361;-50
2023/07/07 05:31:27;;;;;;;6.20;4.20;;;24.60;56.70;;;;;;222176;1247;22529;-52
2023/07/07 05:36:31;;;;;;;7.60;3.30;;;24.60;57.70;;;;;;222450;1260;24072;-54
2023/07/07 05:41:36;;;;;;;6.30;3.30;;;24.60;57.60;;;;;;222213;1261;22521;-53
2023/07/07 05:46:40;;;;;;;4.50;3.70;;;24.80;57.30;;;;;;222595;1266;24262;-52
2023/07/07 05:51:44;;;;;;;4.50;4.00;;;24.80;57.20;;;;;;222434;1263;22518;-53
2023/07/07 05:56:49;;;;;;;4.60;3.50;;;24.90;57.50;;;;;;222560;1260;22623;-54
2023/07/07 06:01:53;;;;;;;4.50;3.20;;;24.90;57.70;;;;;;222038;1260;24246;-53
2023/07/07 06:06:58;;;;;;;5.90;2.90;;;24.80;57.40;;;;;;222482;1260;22642;-52
2023/07/07 06:12:02;;;;;;;5.50;3.70;;;24.80;57.80;;;;;;222002;1264;22530;-53
2023/07/07 06:17:06;;;;;;;4.20;3.40;;;24.70;57.60;;;;;;222504;1264;23167;-53
2023/07/07 06:22:10;;;;;;;3.80;2.90;;;24.70;57.60;;;;;;222050;1264;22550;-52
2023/07/07 06:27:14;;;;;;;4.50;3.40;;;24.70;57.60;;;;;;222544;1253;22527;-53
2023/07/07 06:32:19;;;;;;;4.40;3.30;;;24.70;57.30;;;;;;222606;1260;22924;-53
2023/07/07 06:37:23;;;;;;;5.30;3.30;;;24.70;57.00;;;;;;222696;1265;22727;-52
2023/07/07 06:42:27;;;;;;;3.70;3.20;;;24.70;56.80;;;;;;222474;1263;23137;-51
2023/07/07 06:47:36;;;;;;;5.00;3.10;;;24.80;56.20;;;;;;222483;1256;26702;-54
2023/07/07 06:52:40;;;;;;;4.40;3.00;;;24.80;56.00;;;;;;222205;1260;22533;-53
2023/07/07 06:57:44;;;;;;;3.80;3.40;;;24.80;55.40;;;;;;222611;1267;24349;-55
2023/07/07 07:02:48;;;;;;;6.20;3.70;;;24.80;55.30;;;;;;222214;1260;24212;-51
2023/07/07 07:07:53;;;;;;;5.50;3.40;;;24.90;55.60;;;;;;222062;1266;24212;-56
2023/07/07 07:12:57;;;;;;;5.10;3.50;;;25.10;55.50;;;;;;222212;1263;22503;-53
2023/07/07 07:18:01;;;;;;;4.10;3.40;;;25.10;55.60;;;;;;222395;1257;22505;-54
2023/07/07 07:23:06;;;;;;;3.30;2.90;;;25.10;55.30;;;;;;222219;1266;22638;-53
2023/07/07 07:28:12;;;;;;;4.20;2.90;;;25.10;55.30;;;;;;222097;1265;24241;-54
2023/07/07 07:33:20;;;;;;;4.20;3.10;;;25.20;55.20;;;;;;222549;1267;25373;-54
2023/07/07 07:38:24;;;;;;;20.20;4.10;;;25.10;55.20;;;;;;222469;1267;25271;-52
2023/07/07 07:43:28;;;;;;;24.80;5.00;;;25.10;55.60;;;;;;222214;1260;22518;-53
2023/07/07 07:48:32;;;;;;;19.20;4.10;;;25.10;55.30;;;;;;222486;1264;22596;-54
2023/07/07 07:53:36;;;;;;;9.20;3.70;;;25.20;54.80;;;;;;222340;1268;25479;-54
2023/07/07 07:58:40;;;;;;;10.80;3.40;;;25.20;54.60;;;;;;222235;1260;24225;-55
2023/07/07 08:03:44;;;;;;;28.60;4.00;;;25.20;54.80;;;;;;222265;1260;22519;-55
2023/07/07 08:08:48;;;;;;;7.10;3.00;;;25.20;55.30;;;;;;222302;1263;25261;-51
2023/07/07 08:13:54;;;;;;;7.50;3.00;;;25.10;55.00;;;;;;222197;1261;22770;-52
2023/07/07 08:18:58;;;;;;;5.50;3.50;;;25.10;55.20;;;;;;222270;1263;26058;-53
2023/07/07 08:24:05;;;;;;;2.80;2.60;;;25.10;55.30;;;;;;222221;1266;22505;-52
2023/07/07 08:29:09;;;;;;;5.80;3.20;;;25.10;54.90;;;;;;222655;1263;26700;-51
2023/07/07 08:34:27;;;;;;;7.20;3.20;;;25.10;54.50;;;;;;222280;1263;22643;-52
2023/07/07 08:39:47;;;;;;;5.60;3.40;;;25.10;54.40;;;;;;222143;1263;22762;-54
2023/07/07 08:44:52;;;;;;;5.60;2.80;;;25.10;54.10;;;;;;222287;1257;22534;-53
2023/07/07 08:50:23;;;;;;;5.40;2.80;;;25.10;53.30;;;;;;221847;1262;23049;-44
2023/07/07 08:55:44;;;;;;;3.10;2.70;;;25.20;53.60;;;;;;221914;1247;26586;-41
2023/07/07 09:01:14;;;;;;;3.40;2.50;;;25.30;52.90;;;;;;222255;1267;24216;-42
2023/07/07 09:06:40;;;;;;;2.70;2.50;;;25.30;51.40;;;;;;222152;1256;22608;-41
2023/07/07 09:12:03;;;;;;;2.90;2.60;;;25.40;51.80;;;;;;222161;1257;24186;-45
2023/07/07 09:17:18;;;;;;;2.90;2.60;;;25.30;52.20;;;;;;222109;1261;22687;-41
2023/07/07 09:22:36;;;;;;;3.60;2.40;;;25.40;53.10;;;;;;222242;1253;22618;-41
2023/07/07 09:27:45;;;;;;;5.30;2.30;;;25.30;52.70;;;;;;222522;1253;25319;-56
2023/07/07 09:32:49;;;;;;;2.80;2.40;;;25.40;51.50;;;;;;222271;1254;22586;-58
2023/07/07 09:38:12;;;;;;;2.70;2.20;;;25.40;52.00;;;;;;222283;1266;24365;-58
2023/07/07 09:44:07;;;;;;;5.50;2.70;;;25.40;51.20;;;;;;222460;1268;23871;-58
2023/07/07 09:49:24;;;;;;;6.20;2.50;;;25.40;51.10;;;;;;221115;1269;25272;-57
2023/07/07 09:54:30;;;;;;;2.80;2.20;;;25.60;50.90;;;;;;220992;1272;24267;-58
2023/07/07 09:59:42;;;;;;;6.80;2.20;;;25.60;49.90;;;;;;220797;1269;24223;-56
2023/07/07 10:04:52;;;;;;;5.10;2.10;;;25.70;49.90;;;;;;220714;1272;22567;-56
2023/07/07 10:09:59;;;;;;;5.80;2.50;;;25.50;50.10;;;;;;220764;1262;22727;-50
2023/07/07 10:15:30;;;;;;;3.90;2.30;;;25.50;49.70;;;;;;221248;1264;22656;-50
2023/07/07 10:20:35;;;;;;;7.40;2.70;;;25.60;49.50;;;;;;221064;1260;22508;-49
2023/07/07 10:25:41;;;;;;;2.60;2.20;;;25.70;49.50;;;;;;222261;1254;22645;-48
2023/07/07 10:30:46;;;;;;;6.10;2.20;;;25.70;48.80;;;;;;222211;1263;23108;-49
2023/07/07 10:35:51;;;;;;;6.00;2.20;;;25.70;48.20;;;;;;222356;1266;23914;-48
2023/07/07 10:40:58;;;;;;;2.50;2.10;;;25.70;46.80;;;;;;222256;1261;24171;-50
2023/07/07 10:46:10;;;;;;;4.00;2.10;;;25.80;46.90;;;;;;222289;1261;22517;-50
2023/07/07 10:51:33;;;;;;;3.90;2.40;;;25.90;47.10;;;;;;222409;1265;22530;-47
2023/07/07 10:56:43;;;;;;;4.20;2.30;;;25.90;47.30;;;;;;222490;1260;24348;-51
2023/07/07 11:02:26;;;;;;;8.20;2.40;;;25.70;47.00;;;;;;222601;1257;22544;-49
2023/07/07 11:07:59;;;;;;;3.80;2.10;;;25.70;46.90;;;;;;222576;1263;23926;-52
2023/07/07 11:13:06;;;;;;;3.90;2.20;;;25.70;46.20;;;;;;222406;1260;22510;-48
2023/07/07 11:18:50;;;;;;;4.50;1.80;;;25.80;46.00;;;;;;222412;1260;25226;-51
2023/07/07 11:24:37;;;;;;;5.00;2.80;;;25.80;45.80;;;;;;221915;1256;24189;-51
2023/07/07 11:30:02;;;;;;;8.10;2.40;;;25.90;45.50;;;;;;221840;1253;22504;-47
2023/07/07 11:35:33;;;;;;;3.20;1.80;;;26.00;45.50;;;;;;222101;1260;25201;-50
2023/07/07 11:41:14;;;;;;;2.20;1.90;;;25.90;45.50;;;;;;222644;1254;22515;-48
2023/07/07 11:46:53;;;;;;;4.00;2.10;;;25.90;45.20;;;;;;222712;1260;25252;-48
2023/07/07 11:52:28;;;;;;;4.70;2.20;;;25.90;45.00;;;;;;222608;1260;25322;-48
2023/07/07 11:58:13;;;;;;;2.50;2.00;;;25.80;43.20;;;;;;222319;1267;23908;-51
2023/07/07 12:04:05;;;;;;;3.00;2.00;;;26.00;43.80;;;;;;222615;1254;25533;-48
2023/07/07 12:09:19;;;;;;;3.10;2.20;;;26.00;44.60;;;;;;220927;1265;25288;-50
2023/07/07 12:14:35;;;;;;;3.00;2.00;;;26.00;45.30;;;;;;222390;1260;24220;-49
2023/07/07 12:19:47;;;;;;;2.10;1.90;;;26.10;45.60;;;;;;222555;1254;22520;-51
2023/07/07 12:24:58;;;;;;;3.30;2.00;;;26.10;45.20;;;;;;222449;1260;24202;-53
2023/07/07 12:30:03;;;;;;;2.20;1.90;;;26.00;44.30;;;;;;222456;1244;22776;-55
2023/07/07 12:35:36;;;;;;;3.60;2.10;;;26.00;45.00;;;;;;222439;1261;22507;-55
2023/07/07 12:40:43;;;;;;;6.90;2.10;;;26.20;43.80;;;;;;222767;1260;22803;-55
2023/07/07 12:45:48;;;;;;;5.20;2.10;;;26.20;43.60;;;;;;222393;1253;22577;-54
2023/07/07 12:51:00;;;;;;;5.40;2.50;;;26.10;43.90;;;;;;222407;1250;25594;-53
2023/07/07 12:56:07;;;;;;;7.40;2.40;;;26.00;43.90;;;;;;222626;1254;24372;-54
2023/07/07 13:01:14;;;;;;;7.60;2.20;;;26.40;42.70;;;;;;222496;1254;22765;-52
2023/07/07 13:06:31;;;;;;;4.60;2.10;;;26.50;42.40;;;;;;222317;1261;24272;-54
2023/07/07 13:11:35;;;;;;;2.80;2.40;;;26.50;43.00;;;;;;222520;1260;22638;-56
2023/07/07 13:16:39;;;;;;;3.30;2.50;;;26.40;43.60;;;;;;222365;1262;24161;-55
2023/07/07 13:21:46;;;;;;;6.60;2.80;;;26.40;43.80;;;;;;222619;1253;24163;-56
2023/07/07 13:26:50;;;;;;;3.60;2.20;;;26.40;44.10;;;;;;222382;1254;25290;-58
2023/07/07 13:31:54;;;;;;;3.80;2.30;;;26.30;44.70;;;;;;222332;1260;22511;-56
2023/07/07 13:37:07;;;;;;;4.80;2.10;;;26.20;44.80;;;;;;222536;1255;24171;-55
2023/07/07 13:42:32;;;;;;;5.00;2.80;;;26.30;46.60;;;;;;222588;1267;22607;-54
2023/07/07 13:47:45;;;;;;;10.00;3.00;;;26.30;47.50;;;;;;222381;1247;24197;-56
2023/07/07 13:53:04;;;;;;;3.90;2.40;;;26.30;47.50;;;;;;222494;1261;25429;-52
2023/07/07 13:58:17;;;;;;;4.20;3.00;;;26.40;48.80;;;;;;222510;1260;22558;-55
2023/07/07 14:03:22;;;;;;;7.50;3.80;;;26.30;49.10;;;;;;222170;1266;22505;-55
2023/07/07 14:08:27;;;;;;;9.00;3.70;;;26.30;50.10;;;;;;222505;1260;22505;-53
2023/07/07 14:13:33;;;;;;;8.00;3.80;;;26.30;51.00;;;;;;222455;1260;248064;-54
2023/07/07 14:18:48;;;;;;;10.40;5.70;;;26.30;51.40;;;;;;222568;1254;22635;-55
2023/07/07 14:23:52;;;;;;;8.60;4.00;;;26.40;54.00;;;;;;222328;1264;22509;-55
2023/07/07 14:28:58;;;;;;;13.30;4.80;;;26.50;56.40;;;;;;222581;1257;23601;-54
2023/07/07 14:34:03;;;;;;;4.60;3.20;;;26.50;56.20;;;;;;222475;1254;25041;-53
2023/07/07 14:39:37;;;;;;;9.10;3.50;;;26.70;51.30;;;;;;222394;1254;22548;-54
2023/07/07 14:44:48;;;;;;;14.60;4.60;;;26.70;50.60;;;;;;220594;1261;22540;-54
2023/07/07 14:49:52;;;;;;;32.50;10.80;;;26.80;49.10;;;;;;221052;1254;25069;-55
2023/07/07 14:55:00;;;;;;;83.50;36.60;;;26.80;48.40;;;;;;220866;1268;22596;-51
2023/07/07 15:00:31;;;;;;;39.90;16.50;;;26.70;50.30;;;;;;221270;1261;22543;-56
2023/07/07 15:05:35;;;;;;;16.50;8.30;;;26.70;49.10;;;;;;221149;1274;23913;-54
2023/07/07 15:10:42;;;;;;;16.00;7.00;;;26.80;45.70;;;;;;221190;1256;24221;-49
2023/07/07 15:15:50;;;;;;;10.00;5.30;;;26.70;43.90;;;;;;221075;1254;25452;-47
2023/07/07 15:20:54;;;;;;;5.00;3.30;;;26.70;43.50;;;;;;221937;1253;24189;-54
2023/07/07 15:25:58;;;;;;;3.80;2.60;;;26.60;43.00;;;;;;222381;1247;22567;-53
2023/07/07 15:31:14;;;;;;;6.10;3.10;;;26.60;42.70;;;;;;222281;1267;25274;-53
2023/07/07 15:36:21;;;;;;;4.20;2.50;;;26.70;42.00;;;;;;222378;1261;22519;-53
2023/07/07 15:41:27;;;;;;;7.40;2.70;;;26.80;43.00;;;;;;222237;1262;22523;-54
2023/07/07 15:46:36;;;;;;;18.40;5.90;;;26.80;43.70;;;;;;222279;1269;22508;-54
2023/07/07 15:51:53;;;;;;;7.40;3.30;;;26.80;46.40;;;;;;222357;1261;24330;-54
2023/07/07 15:56:57;;;;;;;8.60;2.50;;;26.50;44.00;;;;;;222354;1264;24727;-52
2023/07/07 16:02:14;;;;;;;15.80;2.70;;;26.50;42.20;;;;;;222436;1268;22733;-55
2023/07/07 16:07:19;;;;;;;3.80;2.10;;;26.50;42.00;;;;;;222586;1267;22619;-54
2023/07/07 16:12:24;;;;;;;6.10;2.10;;;26.60;41.20;;;;;;222517;1260;23014;-45
2023/07/07 16:17:28;;;;;;;7.20;2.00;;;26.80;40.20;;;;;;222402;1264;23886;-46
2023/07/07 16:22:47;;;;;;;3.40;2.40;;;26.70;40.70;;;;;;222532;1266;22659;-48
2023/07/07 16:27:52;;;;;;;4.50;2.10;;;26.70;40.70;;;;;;228039;1268;25406;-47
2023/07/07 16:33:00;;;;;;;2.40;2.10;;;26.60;41.00;;;;;;222759;1261;24154;-52
2023/07/07 16:38:10;;;;;;;1.80;1.70;;;26.50;40.90;;;;;;222730;1268;22518;-48
2023/07/07 16:43:14;;;;;;;3.40;2.10;;;26.50;40.30;;;;;;222579;1262;22598;-49
2023/07/07 16:48:18;;;;;;;1.80;1.70;;;26.40;41.10;;;;;;222443;1254;22619;-48
2023/07/07 16:53:24;;;;;;;2.60;1.70;;;26.30;39.80;;;;;;222366;1261;22741;-48
2023/07/07 16:58:28;;;;;;;4.10;2.20;;;26.50;38.80;;;;;;222423;1260;24122;-48
2023/07/07 17:03:32;;;;;;;2.00;1.80;;;26.60;39.40;;;;;;222340;1263;22511;-52
2023/07/07 17:08:37;;;;;;;22.80;2.60;;;26.50;40.10;;;;;;222293;1245;22658;-48
2023/07/07 17:13:41;;;;;;;2.30;2.00;;;26.50;42.10;;;;;;222208;1267;22523;-48
2023/07/07 17:18:53;;;;;;;7.00;1.90;;;26.50;41.60;;;;;;222353;1264;25210;-46
2023/07/07 17:23:57;;;;;;;7.60;2.00;;;26.50;40.90;;;;;;222281;1262;22637;-49
2023/07/07 17:29:01;;;;;;;10.50;2.10;;;26.70;40.70;;;;;;222286;1264;23905;-52
2023/07/07 17:34:08;;;;;;;7.00;2.20;;;26.70;40.90;;;;;;222420;1254;22824;-51
2023/07/07 17:39:14;;;;;;;2.10;1.80;;;26.50;41.00;;;;;;222642;1254;22617;-47
2023/07/07 17:44:18;;;;;;;6.00;2.20;;;26.50;40.70;;;;;;222356;1261;23013;-50
2023/07/07 17:49:23;;;;;;;7.30;2.30;;;26.70;41.10;;;;;;222495;1254;22782;-49
2023/07/07 17:54:27;;;;;;;3.00;1.70;;;26.60;41.60;;;;;;222396;1268;22664;-48
2023/07/07 17:59:31;;;;;;;4.40;2.10;;;26.50;41.20;;;;;;222372;1263;24189;-48
2023/07/07 18:04:36;;;;;;;2.10;1.80;;;26.50;42.70;;;;;;222383;1264;22525;-46
2023/07/07 18:09:43;;;;;;;5.10;2.20;;;26.50;43.10;;;;;;222825;1261;24157;-50
2023/07/07 18:14:47;;;;;;;4.00;2.00;;;26.50;43.70;;;;;;222551;1264;25475;-49
2023/07/07 18:19:53;;;;;;;4.80;2.20;;;26.40;44.00;;;;;;222483;1264;22617;-49
2023/07/07 18:25:18;;;;;;;5.20;2.00;;;26.40;44.50;;;;;;222472;1254;22527;-46
2023/07/07 18:30:28;;;;;;;13.20;2.80;;;26.40;45.30;;;;;;222229;1257;23169;-52
2023/07/07 18:35:33;;;;;;;5.10;2.80;;;26.20;46.70;;;;;;222460;1261;25210;-52
2023/07/07 18:40:41;;;;;;;7.80;4.00;;;26.20;46.50;;;;;;222484;1264;24754;-52
2023/07/07 18:45:45;;;;;;;3.80;3.50;;;26.20;46.50;;;;;;222779;1264;24311;-50
2023/07/07 18:50:50;;;;;;;3.90;3.60;;;26.20;46.90;;;;;;222436;1264;22765;-52
2023/07/07 18:55:54;;;;;;;4.80;4.40;;;26.00;46.60;;;;;;222456;1246;25447;-52
2023/07/07 19:00:59;;;;;;;5.20;3.50;;;26.00;46.90;;;;;;222441;1258;24256;-50
2023/07/07 19:06:25;;;;;;;5.70;3.80;;;26.00;47.80;;;;;;222440;1268;22564;-51
2023/07/07 19:11:30;;;;;;;6.30;3.60;;;25.80;47.80;;;;;;223116;1261;24183;-53
2023/07/07 19:16:38;;;;;;;7.70;3.70;;;25.80;47.60;;;;;;222916;1260;24185;-53
2023/07/07 19:21:42;;;;;;;4.60;3.40;;;25.90;47.20;;;;;;222309;1264;22530;-50
2023/07/07 19:26:51;;;;;;;7.10;4.00;;;25.70;47.20;;;;;;222503;1261;22515;-50
2023/07/07 19:31:56;;;;;;;6.70;3.60;;;25.60;47.50;;;;;;222831;1260;22634;-47
2023/07/07 19:37:00;;;;;;;7.30;3.60;;;25.60;47.70;;;;;;222514;1264;25306;-44
2023/07/07 19:42:08;;;;;;;6.40;3.90;;;25.50;47.80;;;;;;222572;1247;22638;-48
2023/07/07 19:47:15;;;;;;;4.70;3.80;;;25.40;48.00;;;;;;222472;1260;22522;-46
2023/07/07 19:52:20;;;;;;;5.60;3.30;;;25.30;49.00;;;;;;222369;1260;26648;-45
2023/07/07 19:57:24;;;;;;;4.80;3.50;;;25.30;48.60;;;;;;222464;1261;25380;-48
2023/07/07 20:02:29;;;;;;;7.10;4.00;;;25.10;49.00;;;;;;222493;1264;22517;-46
2023/07/07 20:07:34;;;;;;;8.60;4.20;;;25.10;49.30;;;;;;222647;1267;22564;-46
2023/07/07 20:12:39;;;;;;;7.10;3.70;;;25.10;50.30;;;;;;222577;1263;22529;-46
2023/07/07 20:17:46;;;;;;;5.80;3.70;;;25.10;50.70;;;;;;222625;1254;25374;-45
2023/07/07 20:22:50;;;;;;;4.90;3.50;;;25.10;51.30;;;;;;222652;1264;25588;-44
2023/07/07 20:27:55;;;;;;;10.50;4.00;;;24.90;51.60;;;;;;222654;1260;22692;-47
2023/07/07 20:32:59;;;;;;;7.70;3.80;;;24.90;51.70;;;;;;222726;1255;23196;-46
2023/07/07 20:38:10;;;;;;;5.70;3.70;;;24.70;51.80;;;;;;222674;1267;22640;-45
2023/07/07 20:43:14;;;;;;;5.10;3.30;;;24.70;52.00;;;;;;222573;1262;24225;-45
2023/07/07 20:48:19;;;;;;;5.10;3.30;;;24.60;52.00;;;;;;222750;1260;22536;-45
2023/07/07 20:53:25;;;;;;;6.90;3.70;;;24.50;52.50;;;;;;222597;1253;24368;-45
2023/07/07 20:58:28;;;;;;;5.40;4.20;;;24.40;52.50;;;;;;222345;1256;24732;-45
2023/07/07 21:03:33;;;;;;;6.40;3.40;;;24.30;52.70;;;;;;222715;1264;22511;-46
2023/07/07 21:08:38;;;;;;;5.70;4.10;;;24.30;53.00;;;;;;222976;1260;24343;-44
2023/07/07 21:13:44;;;;;;;5.40;3.70;;;24.20;53.50;;;;;;222507;1263;22645;-44
2023/07/07 21:18:49;;;;;;;4.40;3.80;;;24.10;53.80;;;;;;222439;1247;24042;-42
2023/07/07 21:23:53;;;;;;;5.00;4.00;;;24.00;54.10;;;;;;222396;1253;22651;-45
2023/07/07 21:28:59;;;;;;;5.30;4.60;;;24.00;54.80;;;;;;222541;1253;24222;-52
2023/07/07 21:34:03;;;;;;;5.90;4.60;;;23.90;55.10;;;;;;222589;1253;22504;-45
2023/07/07 21:39:30;;;;;;;6.70;5.10;;;23.90;55.40;;;;;;222534;1256;22511;-43
2023/07/07 21:44:35;;;;;;;9.40;5.50;;;24.10;54.70;;;;;;222500;1261;24302;-47
2023/07/07 21:49:39;;;;;;;6.20;4.90;;;24.40;53.80;;;;;;222491;1254;22521;-43
2023/07/07 21:54:43;;;;;;;6.20;5.20;;;24.60;53.30;;;;;;222406;1260;22566;-48
2023/07/07 21:59:47;;;;;;;12.30;4.90;;;24.70;53.20;;;;;;222422;1253;24046;-44
2023/07/07 22:04:52;;;;;;;8.90;5.10;;;24.80;53.10;;;;;;222570;1264;22570;-43
2023/07/07 22:09:56;;;;;;;7.70;5.70;;;24.80;52.90;;;;;;222515;1257;22515;-49
2023/07/07 22:15:00;;;;;;;6.30;5.70;;;24.80;52.80;;;;;;222632;1247;22536;-46
2023/07/07 22:20:20;;;;;;;6.20;5.50;;;24.80;52.80;;;;;;222500;1268;25491;-43
2023/07/07 22:25:26;;;;;;;7.70;6.30;;;24.90;52.90;;;;;;222736;1260;22723;-45
2023/07/07 22:30:38;;;;;;;7.40;6.00;;;24.90;52.70;;;;;;222445;1253;25381;-46
2023/07/07 22:35:42;;;;;;;16.80;6.70;;;24.90;52.80;;;;;;222251;1267;22507;-44
2023/07/07 22:40:49;;;;;;;7.60;6.10;;;24.90;52.50;;;;;;222078;1260;22523;-44
2023/07/07 22:46:01;;;;;;;6.60;5.70;;;24.90;52.60;;;;;;222684;1263;25211;-43
2023/07/07 22:51:09;;;;;;;6.00;5.40;;;24.90;52.80;;;;;;222444;1260;22506;-45
2023/07/07 22:56:25;;;;;;;5.60;5.10;;;24.80;52.70;;;;;;222458;1260;22659;-44
2023/07/07 23:01:29;;;;;;;5.00;4.60;;;24.90;53.00;;;;;;222506;1260;22515;-45
2023/07/07 23:06:34;;;;;;;7.90;5.10;;;24.80;52.70;;;;;;222519;1260;22755;-45
2023/07/07 23:11:38;;;;;;;4.80;4.30;;;24.80;52.70;;;;;;222767;1260;22507;-44
2023/07/07 23:16:42;;;;;;;4.90;4.50;;;24.80;53.00;;;;;;222517;1253;22523;-44
2023/07/07 23:21:46;;;;;;;4.80;4.40;;;24.80;52.60;;;;;;222683;1260;22616;-46
2023/07/07 23:26:51;;;;;;;5.00;4.60;;;24.80;52.90;;;;;;222387;1250;24127;-47
2023/07/07 23:31:55;;;;;;;5.20;4.60;;;24.70;52.80;;;;;;222468;1256;24275;-54
2023/07/07 23:36:59;;;;;;;5.60;4.30;;;24.80;52.80;;;;;;222428;1260;22511;-54
2023/07/07 23:42:10;;;;;;;5.00;4.50;;;24.80;53.00;;;;;;222747;1260;22511;-55
2023/07/07 23:47:15;;;;;;;5.10;4.50;;;24.80;53.10;;;;;;222515;1260;22521;-54
2023/07/07 23:52:19;;;;;;;6.60;4.30;;;24.80;53.20;;;;;;222533;1267;26503;-51
2023/07/07 23:57:23;;;;;;;5.60;4.30;;;24.80;52.90;;;;;;222445;1260;22599;-55
